KTCM/TCM METAR and TAF weather

Enter ICAO airport designator
Station Type Date Time Source
KTCM METAR 2021/04/14 19:58 UTC NOAA

KTCM 141958Z AUTO 01018KT 10SM CLR 16/M02 A3014 RMK AO2 SLP210 T01641022 $


Station Type Date Time Source
KTCM Decoded METAR 2021/04/14 19:58 UTC NOAA

Tacoma / McChord Air Force Base, WA, United States (KTCM) 47-09N 122-29W 87M
Apr 14, 2021 - 03:58 PM EDT / 2021.04.14 1958 UTC
Wind: from the N (010 degrees) at 21 MPH (18 KT):0
Visibility: 10 mile(s):0
Sky conditions: clear
Temperature: 61.5 F (16.4 C)
Dew Point: 28.0 F (-2.2 C)
Relative Humidity: 27%
Pressure (altimeter): 30.14 in. Hg (1020 hPa)
ob: KTCM 141958Z AUTO 01018KT 10SM CLR 16/M02 A3014 RMK AO2 SLP210 T01641022
cycle: 20

Station Type Date Time Source
KTCM TAF 2021/04/14 16:58 UTC NOAA

TAF
AMD KTCM 141655Z 1416/1519 02012G18KT 9999 SKC QNH3015INS
BECMG 1420/1421 01014G20KT 9999 SKC 510009 QNH3007INS
BECMG 1503/1504 03009KT 9999 SKC QNH3008INS TX18/1423Z TN02/1514Z

Example: see airport list